Muir Army Air Field (Fort Indiantown Gap) Airport Fort Indiantown Gap(Annville) US
ICAO: KMUI
IATA: MUI
Category: Medium
Scheduled Services: No

Elevation: 488 ft
TransAlt. 18000 ft.

Airport Communications:
HARRISBURG APP/DEP:118.25
CTAF:126.2
GND:121.625
FLT FLW:40.9
ARNG OPS:49.95
TWR:126.2

KMUI Zoom In..

Runways:

(A) RW 07 length 3978 ft width 98 ft
---- / hdg 70

(B) RW 25 length 3978 ft width 98 ft
---- / hdg 250

Location; KMUI
Day. 04 / Time. 00.56 Zulu
* Altimeter: 30.02
* Temperature: 22° c. 71.6°f.
* Wind from: 000° Speed 00 kn.
Dewpoint: 20° c.
Visibility: 7 Statute Miles.
Clouds: Scattered 7000 ft.
Clouds: Broken 12000 ft.
Clouds: Overcast 2000 ft.
Conditions: Light Rain.

KMUI 040056Z 00000KT 7SM -RA SCT070 BKN120 OVC200 22/20 A3002 RMK AO2A SLP166 P0003 T02150203

Going to: --> -->


Wind - Calm.

 
 
jpsmedia worldairports.se 2020   terms of use